Time;durP1;ratioP1;P1;durP2;ratioP2;P2;SDS_P1;SDS_P2;PMS_P1;PMS_P2;Temp;Humidity;BMP_temperature;BMP_pressure;BME280_temperature;BME280_humidity;BME280_pressure;Samples;Min_cycle;Max_cycle;Signal;HPM_P1;HPM_P2
2022/03/28 00:01:39;;;;;;;;;;;11.20;61.00;;;;;;5080080;28;19908;-72
2022/03/28 00:04:04;;;;;;;;;;;11.10;60.80;;;;;;5066435;28;19912;-72
2022/03/28 00:06:30;;;;;;;;;;;11.10;61.10;;;;;;5062089;28;19915;-72
2022/03/28 00:08:56;;;;;;;;;;;11.10;61.10;;;;;;5079737;28;19909;-72
2022/03/28 00:11:22;;;;;;;;;;;11.00;61.10;;;;;;5080325;28;19962;-72
2022/03/28 00:13:47;;;;;;;;;;;11.00;61.20;;;;;;5079882;28;19909;-72
2022/03/28 00:16:13;;;;;;;;;;;11.00;61.30;;;;;;5079754;28;19912;-72
2022/03/28 00:18:39;;;;;;;;;;;10.90;61.60;;;;;;5079758;28;19931;-72
2022/03/28 00:21:05;;;;;;;;;;;10.90;61.70;;;;;;5079921;28;19908;-72
2022/03/28 00:23:32;;;;;;;;;;;10.80;61.60;;;;;;5079709;28;19919;-72
2022/03/28 00:25:58;;;;;;;;;;;10.80;61.70;;;;;;5079762;28;19916;-72
2022/03/28 00:28:24;;;;;;;;;;;10.80;61.50;;;;;;5068394;28;20007;-72
2022/03/28 00:30:49;;;;;;;;;;;10.70;61.50;;;;;;5079471;28;19947;-72
2022/03/28 00:33:15;;;;;;;;;;;10.70;61.80;;;;;;5079305;28;19913;-72
2022/03/28 00:35:41;;;;;;;;;;;10.60;61.90;;;;;;5079163;28;20018;-72
2022/03/28 00:38:07;;;;;;;;;;;10.60;62.00;;;;;;5078441;28;19908;-72
2022/03/28 00:40:33;;;;;;;;;;;10.60;62.10;;;;;;5079149;28;19943;-72
2022/03/28 00:43:00;;;;;;;;;;;10.50;61.70;;;;;;5079089;28;20283;-72
2022/03/28 00:45:25;;;;;;;;;;;10.50;62.00;;;;;;5079470;28;19912;-72
2022/03/28 00:47:51;;;;;;;;;;;10.50;61.90;;;;;;5078582;28;19986;-72
2022/03/28 00:50:17;;;;;;;;;;;10.50;61.90;;;;;;5079235;28;19915;-72
2022/03/28 00:52:42;;;;;;;;;;;10.40;61.80;;;;;;5078890;28;19909;-72
2022/03/28 00:55:08;;;;;;;;;;;10.40;62.10;;;;;;5079226;28;19908;-72
2022/03/28 00:57:34;;;;;;;;;;;10.30;62.30;;;;;;5078928;28;20394;-72
2022/03/28 01:00:01;;;;;;;;;;;10.30;62.10;;;;;;5079155;28;20367;-72
2022/03/28 01:02:26;;;;;;;;;;;10.30;61.90;;;;;;5075247;28;19948;-72
2022/03/28 01:04:52;;;;;;;;;;;10.20;61.70;;;;;;5069104;28;19923;-72
2022/03/28 01:07:18;;;;;;;;;;;10.20;61.80;;;;;;5078829;28;19908;-72
2022/03/28 01:09:44;;;;;;;;;;;10.20;61.90;;;;;;5078987;28;19915;-72
2022/03/28 01:12:10;;;;;;;;;;;10.20;61.70;;;;;;5078697;28;19909;-72
2022/03/28 01:14:37;;;;;;;;;;;10.10;62.10;;;;;;5078687;28;20009;-72
2022/03/28 01:19:53;;;;;;;;;;;10.00;62.10;;;;;;5078858;28;19985;-72
2022/03/28 01:22:19;;;;;;;;;;;10.00;61.60;;;;;;5078650;28;19908;-72
2022/03/28 01:24:45;;;;;;;;;;;10.00;62.00;;;;;;5078401;28;19908;-72
2022/03/28 01:27:12;;;;;;;;;;;9.90;62.10;;;;;;5073011;28;20372;-72
2022/03/28 01:29:37;;;;;;;;;;;9.90;62.00;;;;;;5055181;28;19916;-72
2022/03/28 01:32:03;;;;;;;;;;;9.80;62.00;;;;;;5078140;28;19909;-72
2022/03/28 01:34:29;;;;;;;;;;;9.80;62.20;;;;;;5078122;28;19958;-72
2022/03/28 01:36:54;;;;;;;;;;;9.80;62.50;;;;;;5078162;28;19908;-72
2022/03/28 01:39:20;;;;;;;;;;;9.70;62.30;;;;;;5077877;28;19950;-72
2022/03/28 01:41:46;;;;;;;;;;;9.70;62.10;;;;;;5077299;28;19999;-72
2022/03/28 01:44:12;;;;;;;;;;;9.70;62.50;;;;;;5078205;28;19919;-72
2022/03/28 01:46:41;;;;;;;;;;;9.60;62.50;;;;;;5077651;28;19920;-71
2022/03/28 01:49:07;;;;;;;;;;;9.60;62.10;;;;;;5077802;28;19908;-72
2022/03/28 01:51:32;;;;;;;;;;;9.60;62.40;;;;;;5078053;28;20286;-72
2022/03/28 01:54:01;;;;;;;;;;;9.50;62.40;;;;;;5077813;28;19982;-72
2022/03/28 01:56:27;;;;;;;;;;;9.50;62.20;;;;;;5078031;28;20268;-72
2022/03/28 01:58:53;;;;;;;;;;;9.50;61.70;;;;;;5077918;28;19912;-72
2022/03/28 02:01:19;;;;;;;;;;;9.40;62.30;;;;;;5077812;28;19953;-72
2022/03/28 02:03:44;;;;;;;;;;;9.40;62.80;;;;;;5064429;28;20003;-72
2022/03/28 02:06:10;;;;;;;;;;;9.40;62.90;;;;;;5077912;28;20377;-72
2022/03/28 02:08:35;;;;;;;;;;;9.30;62.60;;;;;;5077572;28;19979;-72
2022/03/28 02:11:01;;;;;;;;;;;9.30;62.70;;;;;;5077930;28;19913;-72
2022/03/28 02:13:27;;;;;;;;;;;9.30;62.50;;;;;;5077790;28;19931;-72
2022/03/28 02:15:52;;;;;;;;;;;9.20;62.90;;;;;;5077655;28;19958;-72
2022/03/28 02:18:18;;;;;;;;;;;9.20;62.90;;;;;;5077762;28;19954;-72
2022/03/28 02:20:43;;;;;;;;;;;9.20;62.90;;;;;;5077788;28;19915;-72
2022/03/28 02:23:09;;;;;;;;;;;9.20;63.40;;;;;;5077641;28;19912;-72
2022/03/28 02:25:37;;;;;;;;;;;9.10;63.20;;;;;;5077649;28;19908;-72
2022/03/28 02:28:03;;;;;;;;;;;9.10;63.20;;;;;;5067091;28;19916;-72
2022/03/28 02:30:30;;;;;;;;;;;9.10;63.10;;;;;;5077621;28;19908;-72
2022/03/28 02:32:56;;;;;;;;;;;9.00;63.20;;;;;;5077331;28;19909;-72
2022/03/28 02:35:22;;;;;;;;;;;9.00;63.30;;;;;;5077395;28;19924;-72
2022/03/28 02:37:48;;;;;;;;;;;9.00;63.30;;;;;;5077567;28;19944;-71
2022/03/28 02:40:14;;;;;;;;;;;9.00;63.10;;;;;;5077338;28;19915;-72
2022/03/28 02:42:40;;;;;;;;;;;8.90;63.20;;;;;;5077475;28;19974;-72
2022/03/28 02:45:06;;;;;;;;;;;8.90;63.40;;;;;;5077589;28;19916;-72
2022/03/28 02:47:31;;;;;;;;;;;8.90;63.60;;;;;;5077216;28;20115;-72
2022/03/28 02:49:57;;;;;;;;;;;8.80;63.30;;;;;;5077525;28;19935;-72
2022/03/28 02:52:22;;;;;;;;;;;8.80;63.00;;;;;;5077250;28;19909;-72
2022/03/28 02:54:48;;;;;;;;;;;8.80;63.20;;;;;;5077256;28;19913;-72
2022/03/28 02:57:14;;;;;;;;;;;8.80;63.60;;;;;;5059536;28;19915;-72
2022/03/28 02:59:40;;;;;;;;;;;8.70;63.50;;;;;;5077582;28;19908;-72
2022/03/28 03:02:06;;;;;;;;;;;8.70;63.60;;;;;;5078769;28;19943;-72
2022/03/28 03:04:32;;;;;;;;;;;8.70;63.40;;;;;;5068611;28;19913;-72
2022/03/28 03:06:58;;;;;;;;;;;8.70;63.20;;;;;;5080939;28;19913;-72
2022/03/28 03:09:24;;;;;;;;;;;8.60;63.30;;;;;;5081288;28;20002;-72
2022/03/28 03:11:50;;;;;;;;;;;8.60;63.20;;;;;;5081177;28;19955;-72
2022/03/28 03:14:16;;;;;;;;;;;8.60;63.30;;;;;;5081370;28;19919;-72
2022/03/28 03:16:42;;;;;;;;;;;8.60;62.70;;;;;;5080964;28;20367;-72
2022/03/28 03:19:07;;;;;;;;;;;8.60;62.80;;;;;;5080977;28;19967;-72
2022/03/28 03:21:33;;;;;;;;;;;8.60;63.00;;;;;;5080875;28;19909;-72
2022/03/28 03:23:59;;;;;;;;;;;8.60;62.80;;;;;;5081104;28;19914;-72
2022/03/28 03:26:24;;;;;;;;;;;8.50;63.00;;;;;;5080666;28;19916;-72
2022/03/28 03:28:50;;;;;;;;;;;8.60;63.20;;;;;;5069960;28;19944;-72
2022/03/28 03:31:16;;;;;;;;;;;8.50;62.90;;;;;;5080602;28;19931;-72
2022/03/28 03:33:41;;;;;;;;;;;8.50;62.70;;;;;;5080481;28;19916;-72
2022/03/28 03:36:07;;;;;;;;;;;8.50;62.70;;;;;;5080692;28;19916;-72
2022/03/28 03:38:33;;;;;;;;;;;8.50;62.90;;;;;;5080860;28;19909;-72
2022/03/28 03:40:58;;;;;;;;;;;8.50;62.50;;;;;;5079364;28;19909;-72
2022/03/28 03:43:25;;;;;;;;;;;8.50;63.00;;;;;;5080957;28;19980;-72
2022/03/28 03:45:51;;;;;;;;;;;8.50;63.30;;;;;;5080335;28;19951;-72
2022/03/28 03:48:18;;;;;;;;;;;8.50;63.20;;;;;;5080410;28;20012;-72
2022/03/28 03:50:44;;;;;;;;;;;8.50;63.40;;;;;;5080279;28;20260;-72
2022/03/28 03:53:10;;;;;;;;;;;8.50;63.00;;;;;;5080497;28;19915;-72
2022/03/28 03:55:36;;;;;;;;;;;8.60;64.10;;;;;;5080137;28;20375;-72
2022/03/28 03:58:02;;;;;;;;;;;8.60;63.90;;;;;;5080514;28;20011;-72
2022/03/28 04:00:31;;;;;;;;;;;8.60;64.00;;;;;;5079930;28;19916;-71
2022/03/28 04:02:57;;;;;;;;;;;8.60;63.90;;;;;;5072505;28;20311;-72
2022/03/28 04:05:23;;;;;;;;;;;8.60;63.70;;;;;;5074185;28;19912;-72
2022/03/28 04:07:48;;;;;;;;;;;8.60;62.80;;;;;;5061893;28;19916;-72
2022/03/28 04:10:14;;;;;;;;;;;8.60;62.60;;;;;;5079938;28;19908;-72
2022/03/28 04:12:40;;;;;;;;;;;8.60;63.00;;;;;;5078039;28;19913;-72
2022/03/28 04:15:06;;;;;;;;;;;8.60;62.50;;;;;;5079443;28;20011;-72
2022/03/28 04:17:39;;;;;;;;;;;8.60;62.40;;;;;;5079760;28;19919;-72
2022/03/28 04:20:05;;;;;;;;;;;8.60;64.30;;;;;;5080016;28;19915;-72
2022/03/28 04:22:31;;;;;;;;;;;8.60;65.90;;;;;;5061144;28;19991;-72
2022/03/28 04:24:57;;;;;;;;;;;8.60;65.60;;;;;;5062732;28;20416;-72
2022/03/28 04:27:22;;;;;;;;;;;8.70;64.30;;;;;;5068632;28;19955;-71
2022/03/28 04:29:48;;;;;;;;;;;8.70;64.10;;;;;;5080014;28;20003;-72
2022/03/28 04:32:14;;;;;;;;;;;8.70;63.40;;;;;;5079253;28;19909;-72
2022/03/28 04:34:40;;;;;;;;;;;8.70;62.80;;;;;;5079574;28;19912;-72
2022/03/28 04:37:05;;;;;;;;;;;8.70;62.50;;;;;;5079368;28;19908;-72
2022/03/28 04:39:31;;;;;;;;;;;8.70;62.80;;;;;;5078609;28;19923;-72
2022/03/28 04:41:57;;;;;;;;;;;8.60;63.10;;;;;;5079570;28;19915;-72
2022/03/28 04:44:23;;;;;;;;;;;8.60;63.60;;;;;;5079046;28;19923;-72
2022/03/28 04:46:48;;;;;;;;;;;8.60;63.80;;;;;;5078378;28;19928;-72
2022/03/28 04:49:14;;;;;;;;;;;8.50;63.90;;;;;;5078600;28;20437;-72
2022/03/28 04:51:40;;;;;;;;;;;8.50;64.00;;;;;;5078885;28;19919;-72
2022/03/28 04:54:06;;;;;;;;;;;8.40;64.10;;;;;;5078903;28;19961;-72
2022/03/28 04:56:34;;;;;;;;;;;8.40;64.00;;;;;;5078754;28;19962;-72
2022/03/28 04:58:59;;;;;;;;;;;8.30;64.00;;;;;;5074756;28;19913;-72
2022/03/28 05:01:25;;;;;;;;;;;8.30;64.00;;;;;;5078609;28;19972;-71
2022/03/28 05:03:51;;;;;;;;;;;8.20;64.10;;;;;;5060686;28;19962;-73
2022/03/28 05:06:17;;;;;;;;;;;8.20;64.30;;;;;;5060512;28;19935;-72
2022/03/28 05:08:42;;;;;;;;;;;8.20;64.30;;;;;;5078370;28;20317;-73
2022/03/28 05:11:08;;;;;;;;;;;8.10;64.20;;;;;;5078451;28;19912;-72
2022/03/28 05:13:34;;;;;;;;;;;8.10;64.00;;;;;;5078531;28;20007;-73
2022/03/28 05:16:00;;;;;;;;;;;8.00;64.30;;;;;;5078411;28;19920;-75
2022/03/28 05:18:25;;;;;;;;;;;8.00;64.40;;;;;;5060596;28;19932;-76
2022/03/28 05:20:51;;;;;;;;;;;8.00;64.30;;;;;;5060695;28;19908;-78
2022/03/28 05:23:17;;;;;;;;;;;7.90;64.20;;;;;;5078581;28;20374;-82
2022/03/28 05:25:43;;;;;;;;;;;7.90;64.50;;;;;;5060348;28;19909;-72
2022/03/28 05:28:09;;;;;;;;;;;7.90;64.30;;;;;;5050564;28;19908;-73
2022/03/28 05:30:35;;;;;;;;;;;7.80;64.30;;;;;;5075710;28;20303;-73
2022/03/28 05:33:01;;;;;;;;;;;7.80;64.10;;;;;;5078087;28;19913;-72
2022/03/28 05:35:27;;;;;;;;;;;7.80;64.00;;;;;;5077710;28;20043;-73
2022/03/28 05:37:53;;;;;;;;;;;7.80;64.20;;;;;;5056938;28;19924;-74
2022/03/28 05:40:19;;;;;;;;;;;7.80;64.00;;;;;;5077004;28;19909;-77
2022/03/28 05:42:44;;;;;;;;;;;7.80;63.70;;;;;;5059639;28;19912;-77
2022/03/28 05:45:11;;;;;;;;;;;7.80;63.80;;;;;;5078205;28;19936;-74
2022/03/28 05:47:36;;;;;;;;;;;7.70;63.50;;;;;;5077172;28;19920;-78
2022/03/28 05:50:02;;;;;;;;;;;7.70;63.00;;;;;;5076094;28;20302;-71
2022/03/28 05:52:28;;;;;;;;;;;7.80;63.20;;;;;;5078007;28;20328;-75
2022/03/28 05:54:54;;;;;;;;;;;7.80;63.50;;;;;;5059758;28;19913;-81
2022/03/28 05:57:19;;;;;;;;;;;7.80;64.70;;;;;;5059937;28;19934;-79
2022/03/28 05:59:45;;;;;;;;;;;7.80;64.80;;;;;;5059832;28;19942;-74
2022/03/28 06:02:10;;;;;;;;;;;7.80;64.40;;;;;;5059100;28;19962;-72
2022/03/28 06:04:36;;;;;;;;;;;7.80;65.20;;;;;;5077136;28;19974;-72
2022/03/28 06:07:02;;;;;;;;;;;7.90;66.40;;;;;;5077236;28;19916;-72
2022/03/28 06:09:27;;;;;;;;;;;7.90;65.80;;;;;;5077042;28;20003;-70
2022/03/28 06:11:53;;;;;;;;;;;7.90;66.00;;;;;;5077625;28;19916;-70
2022/03/28 06:14:19;;;;;;;;;;;8.00;65.80;;;;;;5077083;28;20321;-70
2022/03/28 06:16:44;;;;;;;;;;;8.00;65.90;;;;;;5067373;28;19919;-70
2022/03/28 06:19:10;;;;;;;;;;;8.10;65.70;;;;;;5076615;28;19909;-70
2022/03/28 06:21:35;;;;;;;;;;;8.10;66.70;;;;;;5076330;28;19913;-70
2022/03/28 06:24:02;;;;;;;;;;;8.20;66.70;;;;;;5077793;28;19915;-70
2022/03/28 06:26:27;;;;;;;;;;;8.30;67.10;;;;;;5077128;28;19909;-70
2022/03/28 06:28:53;;;;;;;;;;;8.30;66.80;;;;;;5064022;28;19959;-70
2022/03/28 06:31:19;;;;;;;;;;;8.40;66.70;;;;;;5073060;28;20364;-70
2022/03/28 06:33:45;;;;;;;;;;;8.40;65.70;;;;;;5075537;28;19942;-70
2022/03/28 06:36:11;;;;;;;;;;;8.50;66.30;;;;;;5078027;28;19912;-75
2022/03/28 06:38:36;;;;;;;;;;;8.60;66.00;;;;;;5081337;28;20433;-71
2022/03/28 06:41:02;;;;;;;;;;;8.60;65.70;;;;;;5080028;28;19916;-71
2022/03/28 06:43:28;;;;;;;;;;;8.70;65.80;;;;;;5080582;28;19908;-72
2022/03/28 06:45:54;;;;;;;;;;;8.80;66.00;;;;;;5080021;28;20260;-71
2022/03/28 06:48:20;;;;;;;;;;;8.80;65.90;;;;;;5081176;28;20541;-71
2022/03/28 06:50:46;;;;;;;;;;;8.90;66.00;;;;;;5080768;28;19921;-71
2022/03/28 06:53:12;;;;;;;;;;;9.00;65.80;;;;;;5080281;28;20069;-72
2022/03/28 06:55:38;;;;;;;;;;;9.00;65.40;;;;;;5080709;28;19970;-72
2022/03/28 06:58:03;;;;;;;;;;;9.10;66.30;;;;;;5080630;28;19912;-71
2022/03/28 07:00:29;;;;;;;;;;;9.20;66.10;;;;;;5077204;28;19913;-71
2022/03/28 07:02:54;;;;;;;;;;;9.30;65.60;;;;;;5080925;28;20011;-71
2022/03/28 07:05:20;;;;;;;;;;;9.40;66.10;;;;;;5078977;28;20066;-71
2022/03/28 07:07:47;;;;;;;;;;;9.50;66.20;;;;;;5080414;28;20398;-71
2022/03/28 07:10:20;;;;;;;;;;;9.50;66.20;;;;;;5076160;28;19919;-71
2022/03/28 07:12:45;;;;;;;;;;;9.60;66.00;;;;;;5079742;28;19919;-71
2022/03/28 07:15:12;;;;;;;;;;;9.70;65.90;;;;;;5080222;28;19917;-72
2022/03/28 07:17:55;;;;;;;;;;;9.80;65.70;;;;;;5078762;28;19982;-71
2022/03/28 07:20:22;;;;;;;;;;;9.90;65.40;;;;;;5077875;28;20265;-71
2022/03/28 07:22:48;;;;;;;;;;;10.00;65.60;;;;;;5061159;28;19909;-72
2022/03/28 07:25:14;;;;;;;;;;;10.10;65.50;;;;;;5079404;28;19919;-72
2022/03/28 07:27:41;;;;;;;;;;;10.20;65.80;;;;;;5072141;28;19908;-71
2022/03/28 07:30:07;;;;;;;;;;;10.30;65.50;;;;;;5080356;28;19913;-71
2022/03/28 07:32:33;;;;;;;;;;;10.40;65.50;;;;;;5079328;28;19919;-71
2022/03/28 07:34:58;;;;;;;;;;;10.50;65.80;;;;;;5062242;28;20302;-71
2022/03/28 07:37:24;;;;;;;;;;;10.60;65.40;;;;;;5080247;28;19909;-71
2022/03/28 07:39:50;;;;;;;;;;;10.70;66.00;;;;;;5080153;28;19908;-72
2022/03/28 07:42:16;;;;;;;;;;;10.80;65.70;;;;;;5080066;28;19916;-72
2022/03/28 07:44:42;;;;;;;;;;;11.00;65.70;;;;;;5062098;28;19908;-72
2022/03/28 07:47:08;;;;;;;;;;;11.10;65.60;;;;;;5079173;28;19925;-71
2022/03/28 07:49:35;;;;;;;;;;;11.20;65.70;;;;;;5079497;28;20326;-72
2022/03/28 07:52:01;;;;;;;;;;;11.30;65.70;;;;;;5077036;28;19916;-71
2022/03/28 07:54:28;;;;;;;;;;;11.40;65.60;;;;;;5061044;28;19912;-72
2022/03/28 07:56:54;;;;;;;;;;;11.50;65.40;;;;;;5079947;28;19908;-72
2022/03/28 07:59:21;;;;;;;;;;;11.50;65.30;;;;;;5079239;28;20331;-72
2022/03/28 08:01:46;;;;;;;;;;;11.60;65.40;;;;;;5079396;28;19955;-72
2022/03/28 08:04:15;;;;;;;;;;;11.70;65.30;;;;;;5079167;28;19913;-71
2022/03/28 08:06:41;;;;;;;;;;;11.80;65.80;;;;;;5058028;28;19920;-70
2022/03/28 08:09:07;;;;;;;;;;;11.90;65.30;;;;;;5074468;28;19909;-73
2022/03/28 08:11:32;;;;;;;;;;;12.10;65.30;;;;;;5051060;28;19970;-74
2022/03/28 08:13:58;;;;;;;;;;;12.30;65.60;;;;;;5061118;28;19920;-73
2022/03/28 08:16:24;;;;;;;;;;;12.50;65.60;;;;;;5061100;28;19931;-73
2022/03/28 08:18:49;;;;;;;;;;;12.70;65.50;;;;;;5061004;28;19955;-73
2022/03/28 08:21:15;;;;;;;;;;;13.00;65.20;;;;;;5061337;28;19990;-73
2022/03/28 08:23:41;;;;;;;;;;;13.10;65.10;;;;;;5070874;28;19912;-76
2022/03/28 08:26:06;;;;;;;;;;;13.30;65.00;;;;;;5081659;28;19908;-74
2022/03/28 08:28:32;;;;;;;;;;;13.50;64.90;;;;;;5067337;28;19916;-74
2022/03/28 08:30:58;;;;;;;;;;;13.70;64.70;;;;;;5078513;28;20340;-74
2022/03/28 08:33:23;;;;;;;;;;;13.80;64.40;;;;;;5083415;28;19916;-76
2022/03/28 08:35:49;;;;;;;;;;;14.00;64.30;;;;;;5060621;28;19955;-76
2022/03/28 08:38:15;;;;;;;;;;;14.20;64.00;;;;;;5059701;28;19913;-76
2022/03/28 08:40:42;;;;;;;;;;;14.30;63.60;;;;;;5079050;28;19948;-75
2022/03/28 08:43:07;;;;;;;;;;;14.30;63.40;;;;;;5078631;28;20420;-75
2022/03/28 08:45:35;;;;;;;;;;;14.50;63.10;;;;;;5077747;28;19912;-75
2022/03/28 08:48:02;;;;;;;;;;;14.50;63.00;;;;;;5077591;28;19927;-75
2022/03/28 08:50:27;;;;;;;;;;;14.60;62.90;;;;;;5078984;28;19908;-75
2022/03/28 08:52:53;;;;;;;;;;;14.60;62.50;;;;;;5060682;28;20003;-75
2022/03/28 08:55:19;;;;;;;;;;;14.70;62.40;;;;;;5078308;28;20015;-75
2022/03/28 08:57:45;;;;;;;;;;;14.70;62.30;;;;;;5078696;28;20378;-75
2022/03/28 09:00:11;;;;;;;;;;;14.70;62.30;;;;;;5059641;28;19908;-75
2022/03/28 09:02:50;;;;;;;;;;;14.80;62.30;;;;;;5060753;28;19916;-75
2022/03/28 09:05:17;;;;;;;;;;;14.80;62.30;;;;;;5078318;28;19908;-75
2022/03/28 09:07:43;;;;;;;;;;;14.90;62.30;;;;;;5078059;28;19920;-75
2022/03/28 09:10:08;;;;;;;;;;;15.00;62.50;;;;;;5078390;28;19924;-75
2022/03/28 09:12:40;;;;;;;;;;;15.10;62.10;;;;;;5078533;28;19908;-75
2022/03/28 09:15:09;;;;;;;;;;;15.30;62.10;;;;;;5077852;28;19912;-75
2022/03/28 09:17:38;;;;;;;;;;;15.40;61.80;;;;;;5078219;28;19948;-75
2022/03/28 09:20:04;;;;;;;;;;;15.50;61.40;;;;;;5078148;28;20282;-75
2022/03/28 09:22:31;;;;;;;;;;;15.50;61.80;;;;;;5078557;28;19931;-75
2022/03/28 09:24:58;;;;;;;;;;;15.60;61.10;;;;;;5078171;28;20041;-75
2022/03/28 09:27:25;;;;;;;;;;;15.60;61.10;;;;;;5077940;28;19909;-75
2022/03/28 09:29:54;;;;;;;;;;;15.70;61.00;;;;;;5059828;28;20461;-75
2022/03/28 09:32:21;;;;;;;;;;;15.70;60.70;;;;;;5077483;28;19908;-75
2022/03/28 09:35:00;;;;;;;;;;;15.70;60.50;;;;;;5064150;28;19920;-75
2022/03/28 09:37:26;;;;;;;;;;;15.70;60.30;;;;;;5077490;28;19908;-75
2022/03/28 09:39:51;;;;;;;;;;;15.70;60.60;;;;;;5077384;28;19912;-75
2022/03/28 09:42:17;;;;;;;;;;;15.70;60.90;;;;;;5077508;28;19908;-75
2022/03/28 09:44:45;;;;;;;;;;;15.80;61.00;;;;;;5077449;28;19932;-75
2022/03/28 09:47:12;;;;;;;;;;;16.00;60.90;;;;;;5077530;28;20376;-75
2022/03/28 09:49:39;;;;;;;;;;;16.10;60.90;;;;;;5077306;28;19908;-75
2022/03/28 09:52:06;;;;;;;;;;;16.20;60.50;;;;;;5077512;28;19919;-75
2022/03/28 09:54:52;;;;;;;;;;;16.20;60.30;;;;;;5077164;28;19920;-75
2022/03/28 09:57:22;;;;;;;;;;;16.30;60.50;;;;;;5077325;28;19950;-75
2022/03/28 09:59:48;;;;;;;;;;;16.40;60.20;;;;;;5059458;28;19989;-75
2022/03/28 10:02:24;;;;;;;;;;;16.50;60.30;;;;;;5076900;28;19916;-75
2022/03/28 10:04:51;;;;;;;;;;;16.60;60.50;;;;;;5077453;28;19904;-75
2022/03/28 10:07:17;;;;;;;;;;;16.70;60.50;;;;;;5077212;28;19909;-75
2022/03/28 10:09:43;;;;;;;;;;;16.80;60.50;;;;;;5059601;28;19908;-75
2022/03/28 10:12:09;;;;;;;;;;;16.80;60.40;;;;;;5077023;28;19934;-75
2022/03/28 10:14:36;;;;;;;;;;;16.90;60.10;;;;;;5077284;28;19958;-75
2022/03/28 10:17:02;;;;;;;;;;;17.00;59.80;;;;;;5076866;28;19909;-76
2022/03/28 10:19:30;;;;;;;;;;;17.00;59.70;;;;;;5077569;28;19912;-75
2022/03/28 10:21:57;;;;;;;;;;;17.00;59.70;;;;;;5077030;28;20264;-76
2022/03/28 10:24:24;;;;;;;;;;;17.00;59.70;;;;;;5077036;28;19962;-75
2022/03/28 10:26:55;;;;;;;;;;;17.00;59.70;;;;;;5076843;28;19955;-75
2022/03/28 10:29:24;;;;;;;;;;;17.20;60.30;;;;;;5077248;28;19909;-75
2022/03/28 10:31:55;;;;;;;;;;;17.30;60.40;;;;;;5076971;28;19908;-75
2022/03/28 10:34:40;;;;;;;;;;;17.50;60.30;;;;;;5063786;28;20371;-75
2022/03/28 10:37:24;;;;;;;;;;;17.70;60.20;;;;;;5072963;28;19908;-75
2022/03/28 10:39:50;;;;;;;;;;;17.80;59.90;;;;;;5076967;28;19931;-75
2022/03/28 10:42:25;;;;;;;;;;;18.00;59.50;;;;;;5077273;28;19915;-75
2022/03/28 10:45:03;;;;;;;;;;;18.00;59.50;;;;;;5077168;28;19908;-75
2022/03/28 10:47:41;;;;;;;;;;;18.20;59.40;;;;;;5076490;28;19947;-75
2022/03/28 10:50:08;;;;;;;;;;;18.40;59.30;;;;;;5077222;28;19908;-75
2022/03/28 10:52:34;;;;;;;;;;;18.70;59.30;;;;;;5077422;28;20450;-75
2022/03/28 10:55:05;;;;;;;;;;;19.00;59.80;;;;;;5076915;28;19912;-75
2022/03/28 10:57:31;;;;;;;;;;;19.30;59.60;;;;;;5077244;28;20042;-75
2022/03/28 11:00:00;;;;;;;;;;;19.60;58.60;;;;;;5076412;28;19944;-75
2022/03/28 11:02:29;;;;;;;;;;;19.80;58.00;;;;;;5076816;28;20363;-75
2022/03/28 11:05:04;;;;;;;;;;;20.00;57.90;;;;;;5077172;28;19908;-74
2022/03/28 11:07:30;;;;;;;;;;;20.20;57.80;;;;;;5065997;28;19981;-72
2022/03/28 11:10:07;;;;;;;;;;;20.50;58.20;;;;;;5076200;28;19913;-75
2022/03/28 11:12:34;;;;;;;;;;;20.90;58.30;;;;;;5075234;28;19939;-74
2022/03/28 11:15:11;;;;;;;;;;;21.30;57.90;;;;;;5076479;28;19924;-72
2022/03/28 11:17:38;;;;;;;;;;;21.70;57.30;;;;;;5076828;28;20322;-72
2022/03/28 11:20:11;;;;;;;;;;;22.00;56.40;;;;;;5057594;28;19927;-72
2022/03/28 11:22:37;;;;;;;;;;;22.30;55.60;;;;;;5075689;28;19963;-76
2022/03/28 11:25:03;;;;;;;;;;;22.50;55.90;;;;;;5062795;28;19919;-75
2022/03/28 11:27:32;;;;;;;;;;;22.70;54.40;;;;;;5079409;28;19913;-74
2022/03/28 11:30:12;;;;;;;;;;;22.90;53.10;;;;;;5079540;28;19917;-72
2022/03/28 11:32:38;;;;;;;;;;;23.00;52.40;;;;;;5061969;28;19908;-72
2022/03/28 11:35:05;;;;;;;;;;;23.10;52.70;;;;;;5080035;28;20001;-72
2022/03/28 11:37:30;;;;;;;;;;;23.30;53.90;;;;;;5079752;28;19995;-72
2022/03/28 11:39:56;;;;;;;;;;;23.60;53.00;;;;;;5061691;28;19999;-72
2022/03/28 11:42:29;;;;;;;;;;;23.90;52.80;;;;;;5079775;28;19913;-71
2022/03/28 11:44:55;;;;;;;;;;;24.10;50.90;;;;;;5078909;28;19912;-72
2022/03/28 11:47:21;;;;;;;;;;;24.40;52.00;;;;;;5079406;28;19920;-71
2022/03/28 11:49:55;;;;;;;;;;;24.60;51.80;;;;;;5079722;28;19908;-72
2022/03/28 11:52:21;;;;;;;;;;;24.80;52.30;;;;;;5078760;28;19935;-71
2022/03/28 11:54:46;;;;;;;;;;;25.10;51.70;;;;;;5079776;28;19912;-72
2022/03/28 12:00:21;;;;;;;;;;;25.50;50.50;;;;;;5079415;28;20342;-71
2022/03/28 12:02:47;;;;;;;;;;;25.80;48.80;;;;;;5080552;28;20358;-71
2022/03/28 12:05:22;;;;;;;;;;;25.80;49.00;;;;;;5079883;28;19948;-72
2022/03/28 12:07:48;;;;;;;;;;;25.90;49.70;;;;;;5061699;28;19990;-72
2022/03/28 12:10:14;;;;;;;;;;;26.00;49.70;;;;;;5079528;28;19909;-72
2022/03/28 12:12:40;;;;;;;;;;;26.10;48.60;;;;;;5080028;28;20252;-72
2022/03/28 12:15:09;;;;;;;;;;;26.00;46.60;;;;;;5060925;28;19912;-72
2022/03/28 12:17:35;;;;;;;;;;;26.00;45.90;;;;;;5061884;28;19931;-72
2022/03/28 12:20:03;;;;;;;;;;;25.90;45.30;;;;;;5079705;28;19909;-73
2022/03/28 12:22:29;;;;;;;;;;;25.90;45.60;;;;;;5062085;28;19908;-72
2022/03/28 12:24:56;;;;;;;;;;;25.90;46.10;;;;;;5061590;28;19952;-73
2022/03/28 12:27:25;;;;;;;;;;;26.00;45.50;;;;;;5079197;28;19919;-73
2022/03/28 12:29:51;;;;;;;;;;;26.00;44.20;;;;;;5062373;28;19913;-73
2022/03/28 12:32:17;;;;;;;;;;;26.00;43.00;;;;;;5060954;28;19916;-72
2022/03/28 12:34:43;;;;;;;;;;;26.00;44.20;;;;;;5078014;28;20386;-72
2022/03/28 12:37:13;;;;;;;;;;;26.00;43.00;;;;;;5079251;28;19909;-72
2022/03/28 12:39:41;;;;;;;;;;;26.00;43.10;;;;;;5079236;28;19913;-73
2022/03/28 12:42:07;;;;;;;;;;;26.00;43.40;;;;;;5079570;28;19952;-73
2022/03/28 12:44:33;;;;;;;;;;;25.90;41.20;;;;;;5079293;28;19915;-73
2022/03/28 12:47:06;;;;;;;;;;;25.80;40.60;;;;;;5060940;28;19921;-72
2022/03/28 12:49:43;;;;;;;;;;;25.70;41.90;;;;;;5079293;28;19962;-73
2022/03/28 12:52:10;;;;;;;;;;;25.60;42.20;;;;;;5061016;28;19908;-73
2022/03/28 12:54:36;;;;;;;;;;;25.70;42.50;;;;;;5078552;28;20287;-73
2022/03/28 12:57:02;;;;;;;;;;;25.70;40.80;;;;;;5078795;28;19935;-73
2022/03/28 12:59:31;;;;;;;;;;;25.70;41.20;;;;;;5078265;28;20214;-72
2022/03/28 13:02:09;;;;;;;;;;;25.60;42.10;;;;;;5078564;28;19940;-72
2022/03/28 13:05:02;;;;;;;;;;;25.60;41.40;;;;;;5066792;28;20506;-72
2022/03/28 13:07:29;;;;;;;;;;;25.50;40.70;;;;;;5075357;28;19923;-72
2022/03/28 13:09:58;;;;;;;;;;;25.20;40.80;;;;;;5078386;28;20368;-73
2022/03/28 13:12:40;;;;;;;;;;;25.00;40.80;;;;;;5078209;28;19916;-73
2022/03/28 13:15:07;;;;;;;;;;;24.90;41.40;;;;;;5077801;28;19913;-73
2022/03/28 13:17:33;;;;;;;;;;;24.70;41.50;;;;;;5078441;28;19924;-73
2022/03/28 13:19:59;;;;;;;;;;;24.60;41.60;;;;;;5060696;28;19912;-73
2022/03/28 13:22:25;;;;;;;;;;;24.50;41.30;;;;;;5078388;28;19909;-73
2022/03/28 13:25:05;;;;;;;;;;;24.40;41.30;;;;;;5078355;28;20019;-74
2022/03/28 13:28:05;;;;;;;;;;;24.20;41.80;;;;;;5069316;28;20458;-73
2022/03/28 13:30:24;;;;;;;;;;;24.10;41.20;;;;;;5074666;28;19912;-72
2022/03/28 13:32:50;;;;;;;;;;;24.00;41.50;;;;;;5078057;28;19956;-74
2022/03/28 13:35:17;;;;;;;;;;;23.90;42.70;;;;;;5078134;28;19920;-74
2022/03/28 13:37:54;;;;;;;;;;;23.90;42.80;;;;;;5078480;28;19909;-75
2022/03/28 13:40:21;;;;;;;;;;;23.80;42.70;;;;;;5078256;28;20022;-74
2022/03/28 13:42:47;;;;;;;;;;;23.80;42.70;;;;;;5072214;28;19908;-75
2022/03/28 13:45:12;;;;;;;;;;;23.80;42.90;;;;;;5077565;28;19969;-74
2022/03/28 13:47:38;;;;;;;;;;;23.70;41.50;;;;;;5078162;28;19987;-75
2022/03/28 13:50:04;;;;;;;;;;;23.70;42.60;;;;;;5078186;28;19999;-74
2022/03/28 13:52:30;;;;;;;;;;;23.60;42.70;;;;;;5077685;28;19908;-74
2022/03/28 13:54:55;;;;;;;;;;;23.60;42.60;;;;;;5077547;28;19922;-74
2022/03/28 13:57:21;;;;;;;;;;;23.60;43.20;;;;;;5077393;28;19909;-74
2022/03/28 13:59:47;;;;;;;;;;;23.60;43.00;;;;;;5077432;28;19920;-74
2022/03/28 14:02:12;;;;;;;;;;;23.60;43.20;;;;;;5077191;28;20007;-75
2022/03/28 14:04:38;;;;;;;;;;;23.50;42.60;;;;;;5077589;28;19915;-74
2022/03/28 14:07:04;;;;;;;;;;;23.50;42.60;;;;;;5077642;28;19908;-74
2022/03/28 14:09:30;;;;;;;;;;;23.40;42.50;;;;;;5077364;28;19908;-75
2022/03/28 14:11:56;;;;;;;;;;;23.40;43.20;;;;;;5077555;28;19915;-74
2022/03/28 14:14:25;;;;;;;;;;;23.40;43.00;;;;;;5077884;28;19935;-75
2022/03/28 14:16:52;;;;;;;;;;;23.30;42.90;;;;;;5077227;28;19915;-75
2022/03/28 14:19:18;;;;;;;;;;;23.20;41.40;;;;;;5077949;28;19944;-73
2022/03/28 14:21:43;;;;;;;;;;;23.10;41.40;;;;;;5077391;28;19958;-73
2022/03/28 14:24:10;;;;;;;;;;;23.10;42.50;;;;;;5059436;28;20329;-73
2022/03/28 14:26:35;;;;;;;;;;;23.10;42.90;;;;;;5077342;28;20003;-74
2022/03/28 14:29:01;;;;;;;;;;;23.10;43.00;;;;;;5077264;28;19936;-74